createdAt,value
2019-01-02T00:00:43.987Z,21.40
2019-01-02T00:03:13.113Z,21.40
2019-01-02T00:05:42.470Z,21.40
2019-01-02T00:08:11.582Z,21.40
2019-01-02T00:10:41.065Z,21.30
2019-01-02T00:13:10.428Z,21.30
2019-01-02T00:15:39.590Z,21.30
2019-01-02T00:18:09.130Z,21.30
2019-01-02T00:20:38.346Z,21.30
2019-01-02T00:23:07.557Z,21.30
2019-01-02T00:25:36.773Z,21.30
2019-01-02T00:28:06.581Z,21.30
2019-01-02T00:30:36.200Z,21.30
2019-01-02T00:33:05.916Z,21.30
2019-01-02T00:35:35.074Z,21.30
2019-01-02T00:38:04.430Z,21.30
2019-01-02T00:40:33.515Z,21.20
2019-01-02T00:43:02.973Z,21.30
2019-01-02T00:45:32.437Z,21.30
2019-01-02T00:48:01.527Z,21.30
2019-01-02T00:50:31.037Z,21.20
2019-01-02T00:53:00.207Z,21.20
2019-01-02T00:55:29.497Z,21.20
2019-01-02T00:57:58.607Z,21.20
2019-01-02T01:00:30.606Z,21.20
2019-01-02T01:02:59.673Z,21.20
2019-01-02T01:05:28.776Z,21.20
2019-01-02T01:07:58.001Z,21.20
2019-01-02T01:10:27.376Z,21.20
2019-01-02T01:12:56.524Z,21.20
2019-01-02T01:15:25.617Z,21.20
2019-01-02T01:17:54.692Z,21.20
2019-01-02T01:20:24.057Z,21.10
2019-01-02T01:22:53.209Z,21.10
2019-01-02T01:25:23.445Z,21.10
2019-01-02T01:27:52.587Z,21.10
2019-01-02T01:30:21.927Z,21.10
2019-01-02T01:32:50.989Z,21.10
2019-01-02T01:35:20.226Z,21.20
2019-01-02T01:37:52.156Z,21.10
2019-01-02T01:40:21.341Z,21.10
2019-01-02T01:42:50.467Z,21.10
2019-01-02T01:45:20.033Z,21.10
2019-01-02T01:47:49.282Z,21.10
2019-01-02T01:50:18.762Z,21.10
2019-01-02T01:52:48.322Z,21.10
2019-01-02T01:55:17.919Z,21.10
2019-01-02T01:57:47.294Z,21.10
2019-01-02T02:00:18.802Z,21.10
2019-01-02T02:02:47.925Z,21.10
2019-01-02T02:05:17.360Z,21.10
2019-01-02T02:07:47.035Z,21.10
2019-01-02T02:10:17.455Z,21.10
2019-01-02T02:12:46.661Z,21.10
2019-01-02T02:15:15.858Z,21.10
2019-01-02T02:17:45.360Z,21.10
2019-01-02T02:20:14.763Z,21.10
2019-01-02T02:22:44.313Z,21.10
2019-01-02T02:25:18.339Z,21.10
2019-01-02T02:27:47.429Z,21.10
2019-01-02T02:30:16.974Z,21.10
2019-01-02T02:32:47.583Z,21.10
2019-01-02T02:35:17.222Z,21.10
2019-01-02T02:37:46.289Z,21.10
2019-01-02T02:40:15.877Z,21.10
2019-01-02T02:42:45.284Z,21.10
2019-01-02T02:45:15.099Z,21.10
2019-01-02T02:47:45.268Z,21.10
2019-01-02T02:50:16.104Z,21.10
2019-01-02T02:52:45.749Z,21.10
2019-01-02T02:55:18.069Z,21.10
2019-01-02T02:57:47.484Z,21.10
2019-01-02T03:00:16.592Z,21.10
2019-01-02T03:02:45.668Z,21.10
2019-01-02T03:05:15.402Z,21.10
2019-01-02T03:07:44.859Z,21.10
2019-01-02T03:10:15.572Z,21.10
2019-01-02T03:12:45.124Z,21.10
2019-01-02T03:15:14.547Z,21.10
2019-01-02T03:17:43.895Z,21.10
2019-01-02T03:20:14.505Z,21.10
2019-01-02T03:22:45.481Z,21.10
2019-01-02T03:25:15.326Z,21.10
2019-01-02T03:27:44.844Z,21.10
2019-01-02T03:30:16.922Z,21.20
2019-01-02T03:32:46.479Z,21.20
2019-01-02T03:35:16.033Z,21.20
2019-01-02T03:37:45.151Z,21.20
2019-01-02T03:40:14.562Z,21.20
2019-01-02T03:42:43.654Z,21.20
2019-01-02T03:45:15.687Z,21.20
2019-01-02T03:47:44.867Z,21.20
2019-01-02T03:50:16.068Z,21.20
2019-01-02T03:52:45.138Z,21.20
2019-01-02T03:55:14.641Z,21.20
2019-01-02T03:57:44.453Z,21.20
2019-01-02T04:00:15.683Z,21.30
2019-01-02T04:02:45.019Z,21.30
2019-01-02T04:05:16.094Z,21.30
2019-01-02T04:07:48.476Z,21.30
2019-01-02T04:10:17.802Z,21.30
2019-01-02T04:12:47.017Z,21.30
2019-01-02T04:15:16.192Z,21.30
2019-01-02T04:17:45.877Z,21.30
2019-01-02T04:20:15.126Z,21.30
2019-01-02T04:22:44.620Z,21.30
2019-01-02T04:25:13.833Z,21.30
2019-01-02T04:27:43.172Z,21.40
2019-01-02T04:30:14.010Z,21.40
2019-01-02T04:32:43.209Z,21.40
2019-01-02T04:35:12.304Z,21.40
2019-01-02T04:37:41.407Z,21.40
2019-01-02T04:40:12.261Z,21.40
2019-01-02T04:42:41.376Z,21.40
2019-01-02T04:45:10.944Z,21.40
2019-01-02T04:47:40.041Z,21.40
2019-01-02T04:50:11.153Z,21.40
2019-01-02T04:52:40.241Z,21.40
2019-01-02T04:55:09.425Z,21.40
2019-01-02T04:57:38.544Z,21.40
2019-01-02T05:00:11.644Z,21.40
2019-01-02T05:02:41.216Z,21.40
2019-01-02T05:05:10.316Z,21.40
2019-01-02T05:07:39.412Z,21.40
2019-01-02T05:10:10.089Z,21.40
2019-01-02T05:12:39.376Z,21.40
2019-01-02T05:15:09.261Z,21.50
2019-01-02T05:17:38.577Z,21.50
2019-01-02T05:20:09.879Z,21.40
2019-01-02T05:22:39.523Z,21.50
2019-01-02T05:25:08.843Z,21.50
2019-01-02T05:27:38.201Z,21.50
2019-01-02T05:30:11.390Z,21.50
2019-01-02T05:32:40.877Z,21.50
2019-01-02T05:35:10.437Z,21.50
2019-01-02T05:37:39.536Z,21.50
2019-01-02T05:40:11.858Z,21.50
2019-01-02T05:42:42.209Z,21.50
2019-01-02T05:45:11.521Z,21.50
2019-01-02T05:47:40.932Z,21.50
2019-01-02T05:50:10.225Z,21.60
2019-01-02T05:52:39.349Z,21.60
2019-01-02T05:55:08.555Z,21.60
2019-01-02T05:57:37.736Z,21.60
2019-01-02T06:00:08.084Z,21.60
2019-01-02T06:02:37.242Z,21.60
2019-01-02T06:05:06.927Z,21.60
2019-01-02T06:07:36.322Z,21.60
2019-01-02T06:10:07.200Z,21.70
2019-01-02T06:12:36.713Z,21.70
2019-01-02T06:15:06.868Z,21.70
2019-01-02T06:17:36.235Z,21.70
2019-01-02T06:20:05.933Z,21.70
2019-01-02T06:22:35.501Z,21.70
2019-01-02T06:25:04.713Z,21.70
2019-01-02T06:27:34.265Z,21.70
2019-01-02T06:30:03.341Z,21.70
2019-01-02T06:32:32.533Z,21.70
2019-01-02T06:35:01.911Z,21.70
2019-01-02T06:37:31.169Z,21.70
2019-01-02T06:40:00.330Z,21.80
2019-01-02T06:42:29.712Z,21.80
2019-01-02T06:44:59.067Z,21.80
2019-01-02T06:47:28.234Z,21.80
2019-01-02T06:49:57.682Z,21.80
2019-01-02T06:52:27.292Z,21.80
2019-01-02T06:54:56.497Z,21.80
2019-01-02T06:57:25.920Z,21.80
2019-01-02T06:59:55.439Z,21.80
2019-01-02T07:02:24.620Z,21.80
2019-01-02T07:04:54.284Z,21.80
2019-01-02T07:07:23.786Z,21.80
2019-01-02T07:09:52.982Z,21.80
2019-01-02T07:12:22.465Z,21.80
2019-01-02T07:14:51.855Z,21.80
2019-01-02T07:17:21.078Z,21.80
2019-01-02T07:19:51.041Z,21.80
2019-01-02T07:22:20.329Z,21.80
2019-01-02T07:24:49.556Z,21.80
2019-01-02T07:27:18.680Z,21.80
2019-01-02T07:29:47.776Z,21.80
2019-01-02T07:32:16.944Z,21.80
2019-01-02T07:35:24.353Z,21.80
2019-01-02T07:38:29.268Z,21.80
2019-01-02T07:41:30.764Z,21.80
2019-01-02T07:44:35.935Z,21.90
2019-01-02T07:48:01.104Z,21.80
2019-01-02T07:51:09.000Z,21.90
2019-01-02T07:54:13.798Z,21.90
2019-01-02T07:57:28.513Z,21.90
2019-01-02T08:00:39.880Z,21.90
2019-01-02T08:04:02.104Z,21.90
2019-01-02T08:06:54.797Z,21.90
2019-01-02T08:10:03.775Z,21.90
2019-01-02T08:12:51.737Z,21.90
2019-01-02T08:15:44.034Z,21.90
2019-01-02T08:19:09.353Z,21.90
2019-01-02T08:22:13.102Z,21.90
2019-01-02T08:25:29.489Z,21.90
2019-01-02T08:28:35.333Z,21.90
2019-01-02T08:31:57.833Z,21.90
2019-01-02T08:35:06.823Z,21.90
2019-01-02T08:38:17.756Z,21.90
2019-01-02T08:41:17.266Z,21.90
2019-01-02T08:44:36.332Z,22.00
2019-01-02T08:47:54.813Z,22.10
2019-01-02T08:50:57.625Z,22.30
2019-01-02T08:54:18.596Z,22.40
2019-01-02T08:57:40.112Z,22.50
2019-01-02T09:00:52.270Z,22.60
2019-01-02T09:04:10.102Z,22.60
2019-01-02T09:07:13.812Z,22.70
2019-01-02T09:10:19.880Z,22.80
2019-01-02T09:13:26.460Z,22.90
2019-01-02T09:16:48.935Z,23.00
2019-01-02T09:19:45.217Z,23.10
2019-01-02T09:22:57.121Z,23.20
2019-01-02T09:26:04.715Z,23.20
2019-01-02T09:28:52.228Z,23.30
2019-01-02T09:32:03.493Z,23.30
2019-01-02T09:35:08.650Z,23.40
2019-01-02T09:38:24.861Z,23.50
2019-01-02T09:41:20.869Z,23.50
2019-01-02T09:44:19.730Z,23.50
2019-01-02T09:47:30.295Z,23.50
2019-01-02T09:50:26.958Z,23.40
2019-01-02T09:53:28.953Z,23.40
2019-01-02T09:56:29.578Z,23.40
2019-01-02T09:59:42.663Z,23.40
2019-01-02T10:02:50.306Z,23.40
2019-01-02T10:06:08.129Z,23.40
2019-01-02T10:09:05.896Z,23.30
2019-01-02T10:12:03.475Z,23.30
2019-01-02T10:15:41.118Z,23.30
2019-01-02T10:18:38.828Z,23.30
2019-01-02T10:21:39.941Z,23.30
2019-01-02T10:24:56.229Z,23.30
2019-01-02T10:28:11.010Z,23.20
2019-01-02T10:31:13.561Z,23.20
2019-01-02T10:34:17.060Z,23.20
2019-01-02T10:37:23.953Z,23.10
2019-01-02T10:40:21.889Z,23.20
2019-01-02T10:43:25.007Z,23.20
2019-01-02T10:46:38.372Z,23.10
2019-01-02T10:49:31.954Z,23.20
2019-01-02T10:52:34.520Z,23.30
2019-01-02T10:55:31.160Z,23.40
2019-01-02T10:58:29.624Z,23.50
2019-01-02T11:01:38.711Z,23.60
2019-01-02T11:04:50.872Z,23.70
2019-01-02T11:07:52.736Z,23.80
2019-01-02T11:11:02.930Z,23.80
2019-01-02T11:14:00.301Z,23.90
2019-01-02T11:17:06.369Z,23.90
2019-01-02T11:19:55.066Z,24.00
2019-01-02T11:23:03.594Z,24.00
2019-01-02T11:26:14.244Z,24.10
2019-01-02T11:29:09.570Z,24.20
2019-01-02T11:32:15.643Z,24.20
2019-01-02T11:35:26.406Z,24.30
2019-01-02T11:38:37.161Z,24.40
2019-01-02T11:41:28.025Z,24.50
2019-01-02T11:44:36.775Z,24.60
2019-01-02T11:47:06.006Z,24.60
2019-01-02T11:49:35.129Z,24.70
2019-01-02T11:52:04.235Z,24.80
2019-01-02T11:54:33.658Z,24.80
2019-01-02T11:57:02.981Z,24.90
2019-01-02T11:59:32.521Z,24.90
2019-01-02T12:02:04.519Z,25.00
2019-01-02T12:04:33.870Z,24.90
2019-01-02T12:07:03.621Z,24.90
2019-01-02T12:09:32.829Z,24.80
2019-01-02T12:12:01.940Z,24.80
2019-01-02T12:14:32.342Z,24.70
2019-01-02T12:17:01.487Z,24.70
2019-01-02T12:19:31.089Z,24.70
2019-01-02T12:22:00.553Z,24.70
2019-01-02T12:24:29.697Z,24.80
2019-01-02T12:26:58.945Z,24.90
2019-01-02T12:29:28.114Z,25.00
2019-01-02T12:31:57.267Z,25.10
2019-01-02T12:34:26.614Z,25.10
2019-01-02T12:36:55.821Z,25.20
2019-01-02T12:39:25.000Z,25.10
2019-01-02T12:41:54.449Z,25.10
2019-01-02T12:44:23.936Z,25.10
2019-01-02T12:46:53.590Z,25.00
2019-01-02T12:49:22.929Z,25.00
2019-01-02T12:51:52.072Z,25.10
2019-01-02T12:54:21.253Z,25.10
2019-01-02T12:56:50.343Z,25.20
2019-01-02T12:59:28.673Z,25.20
2019-01-02T13:02:18.627Z,25.20
2019-01-02T13:05:04.737Z,25.30
2019-01-02T13:08:20.424Z,25.40
2019-01-02T13:11:16.934Z,25.40
2019-01-02T13:14:32.004Z,25.30
2019-01-02T13:17:32.914Z,25.40
2019-01-02T13:20:29.004Z,25.40
2019-01-02T13:23:14.131Z,25.50
2019-01-02T13:25:50.567Z,25.50
2019-01-02T13:28:59.608Z,25.40
2019-01-02T13:31:58.783Z,25.40
2019-01-02T13:34:59.309Z,25.40
2019-01-02T13:38:15.639Z,25.30
2019-01-02T13:41:08.759Z,25.30
2019-01-02T13:44:21.048Z,25.20
2019-01-02T13:47:31.769Z,25.20
2019-01-02T13:50:30.593Z,25.20
2019-01-02T13:53:01.554Z,25.10
2019-01-02T13:55:31.156Z,25.20
2019-01-02T13:58:00.387Z,25.20
2019-01-02T14:00:29.485Z,25.20
2019-01-02T14:02:58.805Z,25.20
2019-01-02T14:05:27.963Z,25.20
2019-01-02T14:07:57.206Z,25.20
2019-01-02T14:10:26.402Z,25.20
2019-01-02T14:12:55.617Z,25.20
2019-01-02T14:15:24.786Z,25.10
2019-01-02T14:17:53.941Z,25.10
2019-01-02T14:20:23.240Z,25.10
2019-01-02T14:22:52.665Z,25.10
2019-01-02T14:25:22.092Z,25.10
2019-01-02T14:27:51.195Z,25.10
2019-01-02T14:30:20.416Z,25.10
2019-01-02T14:32:49.732Z,25.10
2019-01-02T14:35:22.388Z,25.10
2019-01-02T14:37:49.877Z,25.20
2019-01-02T14:40:19.690Z,25.10
2019-01-02T14:42:48.837Z,25.10
2019-01-02T16:58:15.662Z,23.90
2019-01-02T17:00:44.753Z,23.90
2019-01-02T17:03:13.856Z,23.90
2019-01-02T17:05:43.304Z,23.90
2019-01-02T17:08:12.458Z,23.80
2019-01-02T17:10:41.594Z,23.80
2019-01-02T17:13:11.672Z,23.80
2019-01-02T17:15:40.798Z,23.70
2019-01-02T17:18:09.972Z,23.70
2019-01-02T17:20:39.143Z,23.70
2019-01-02T17:23:08.155Z,23.70
2019-01-02T17:25:37.230Z,23.60
2019-01-02T17:28:06.510Z,23.60
2019-01-02T17:30:35.904Z,23.60
2019-01-02T17:33:05.417Z,23.60
2019-01-02T17:35:34.568Z,23.60
2019-01-02T17:38:03.663Z,23.50
2019-01-02T17:40:32.797Z,23.60
2019-01-02T17:43:01.954Z,23.50
2019-01-02T17:45:31.429Z,23.50
2019-01-02T17:48:00.515Z,23.40
2019-01-02T17:50:29.804Z,23.50
2019-01-02T17:52:58.952Z,23.40
2019-01-02T17:55:28.096Z,23.40
2019-01-02T17:57:57.549Z,23.40
2019-01-02T18:00:26.693Z,23.40
2019-01-02T18:02:55.917Z,23.30
2019-01-02T18:05:24.989Z,23.40
2019-01-02T18:07:54.082Z,23.30
2019-01-02T18:10:23.144Z,23.30
2019-01-02T18:12:52.325Z,23.30
2019-01-02T18:15:21.668Z,23.30
2019-01-02T18:17:50.993Z,23.30
2019-01-02T18:20:20.175Z,23.20
2019-01-02T18:22:49.334Z,23.10
2019-01-02T18:25:18.399Z,23.10
2019-01-02T18:27:47.407Z,23.10
2019-01-02T18:30:16.585Z,23.10
2019-01-02T18:32:45.738Z,23.10
2019-01-02T18:35:14.905Z,23.10
2019-01-02T18:37:43.925Z,23.00
2019-01-02T18:40:13.098Z,23.00
2019-01-02T18:42:42.397Z,23.00
2019-01-02T18:45:11.732Z,23.00
2019-01-02T18:47:40.814Z,23.00
2019-01-02T18:50:11.155Z,23.00
2019-01-02T18:52:40.154Z,22.90
2019-01-02T18:55:09.296Z,22.90
2019-01-02T18:57:38.315Z,22.90
2019-01-02T19:00:09.921Z,22.90
2019-01-02T19:02:38.991Z,22.80
2019-01-02T19:05:08.314Z,22.80
2019-01-02T19:07:37.406Z,22.80
2019-01-02T19:10:06.630Z,22.80
2019-01-02T19:12:35.716Z,22.70
2019-01-02T19:15:05.249Z,22.80
2019-01-02T19:17:34.216Z,22.80
2019-01-02T19:20:03.658Z,22.70
2019-01-02T19:22:32.737Z,22.70
2019-01-02T19:25:01.892Z,22.70
2019-01-02T19:27:31.004Z,22.70
2019-01-02T19:30:00.017Z,22.70
2019-01-02T19:32:29.169Z,22.70
2019-01-02T19:34:58.272Z,22.60
2019-01-02T19:37:27.577Z,22.60
2019-01-02T19:39:56.758Z,22.60
2019-01-02T19:42:25.896Z,22.60
2019-01-02T19:44:55.024Z,22.60
2019-01-02T19:47:24.024Z,22.60
2019-01-02T19:49:53.119Z,22.70
2019-01-02T19:52:22.173Z,22.70
2019-01-02T19:54:51.334Z,22.70
2019-01-02T19:57:20.568Z,22.70
2019-01-02T19:59:49.597Z,22.70
2019-01-02T20:02:18.742Z,22.70
2019-01-02T20:04:47.901Z,22.70
2019-01-02T20:07:17.300Z,22.70
2019-01-02T20:09:46.294Z,22.70
2019-01-02T20:12:15.440Z,22.60
2019-01-02T20:14:44.381Z,22.60
2019-01-02T20:17:13.627Z,22.60
2019-01-02T20:19:42.716Z,22.60
2019-01-02T20:22:11.870Z,22.60
2019-01-02T20:24:42.145Z,22.50
2019-01-02T20:27:11.309Z,22.60
2019-01-02T20:29:40.482Z,22.60
2019-01-02T20:32:09.672Z,22.60
2019-01-02T20:34:38.744Z,22.70
2019-01-02T20:37:08.441Z,22.70
2019-01-02T20:39:37.616Z,22.60
2019-01-02T20:42:06.736Z,22.60
2019-01-02T20:44:35.758Z,22.70
2019-01-02T20:47:04.840Z,22.60
2019-01-02T20:49:33.901Z,22.70
2019-01-02T20:52:02.918Z,22.70
2019-01-02T20:54:33.084Z,22.70
2019-01-02T20:57:02.434Z,22.70
2019-01-02T20:59:31.505Z,22.70
2019-01-02T21:02:00.721Z,22.70
2019-01-02T21:04:29.834Z,22.70
2019-01-02T21:06:59.008Z,22.70
2019-01-02T21:09:28.162Z,22.70
2019-01-02T21:11:57.169Z,22.70
2019-01-02T21:14:26.497Z,22.70
2019-01-02T21:16:55.640Z,22.70
2019-01-02T21:19:24.632Z,22.70
2019-01-02T21:21:53.636Z,22.70
2019-01-02T21:24:22.741Z,22.70
2019-01-02T21:26:52.042Z,22.70
2019-01-02T21:29:21.112Z,22.70
2019-01-02T21:31:50.133Z,22.70
2019-01-02T21:34:19.301Z,22.70
2019-01-02T21:36:48.369Z,22.70
2019-01-02T21:39:17.421Z,22.80
2019-01-02T21:41:47.445Z,22.80
2019-01-02T21:44:16.665Z,22.80
2019-01-02T21:46:45.742Z,22.80
2019-01-02T21:49:14.809Z,22.80
2019-01-02T21:51:44.104Z,22.80
2019-01-02T21:54:13.257Z,22.80
2019-01-02T21:56:42.455Z,22.80
2019-01-02T21:59:11.517Z,22.80
2019-01-02T22:01:40.712Z,22.80
2019-01-02T22:04:09.784Z,22.80
2019-01-02T22:06:39.137Z,22.80
2019-01-02T22:09:08.256Z,22.80
2019-01-02T22:11:37.424Z,22.80
2019-01-02T22:14:06.545Z,22.80
2019-01-02T22:16:35.684Z,22.80
2019-01-02T22:19:04.733Z,22.70
2019-01-02T22:21:34.055Z,22.80
2019-01-02T22:24:03.166Z,22.80
2019-01-02T22:26:32.164Z,22.80
2019-01-02T22:29:01.361Z,22.80
2019-01-02T22:31:30.709Z,22.80
2019-01-02T22:33:59.797Z,22.80
2019-01-02T22:36:29.052Z,22.80
2019-01-02T22:38:58.281Z,22.80
2019-01-02T22:41:27.693Z,22.80
2019-01-02T22:43:57.260Z,22.70
2019-01-02T22:46:27.652Z,22.70
2019-01-02T22:48:56.772Z,22.70
2019-01-02T22:51:25.847Z,22.70
2019-01-02T22:53:55.114Z,22.70
2019-01-02T22:56:24.241Z,22.70
2019-01-02T22:58:53.357Z,22.60
2019-01-02T23:01:27.713Z,22.60
2019-01-02T23:04:14.226Z,22.70
2019-01-02T23:07:18.351Z,22.60
2019-01-02T23:10:05.391Z,22.60
2019-01-02T23:12:58.707Z,22.60
2019-01-02T23:15:30.276Z,22.60
2019-01-02T23:18:17.222Z,22.60
2019-01-02T23:21:03.996Z,22.60
2019-01-02T23:23:50.968Z,22.60
2019-01-02T23:26:42.166Z,22.60
2019-01-02T23:29:28.944Z,22.60
2019-01-02T23:32:16.273Z,22.50
2019-01-02T23:35:03.191Z,22.50
2019-01-02T23:38:06.602Z,22.50
2019-01-02T23:41:09.957Z,22.60
2019-01-02T23:44:09.067Z,22.50
2019-01-02T23:46:55.676Z,22.50
2019-01-02T23:49:42.403Z,22.40
2019-01-02T23:52:23.205Z,22.40
2019-01-02T23:55:09.693Z,22.40
2019-01-02T23:57:56.437Z,22.40
